createdAt,value
2022-08-23T00:00:17.112Z,21.19
2022-08-23T00:00:52.233Z,21.24
2022-08-23T00:01:29.096Z,21.20
2022-08-23T00:02:02.472Z,21.26
2022-08-23T00:02:37.615Z,21.24
2022-08-23T00:03:13.083Z,21.24
2022-08-23T00:03:48.242Z,21.23
2022-08-23T00:04:23.441Z,21.23
2022-08-23T00:05:09.469Z,21.24
2022-08-23T00:05:33.842Z,21.23
2022-08-23T00:06:09.241Z,21.24
2022-08-23T00:06:44.434Z,21.23
2022-08-23T00:07:19.753Z,21.20
2022-08-23T00:07:55.120Z,21.06
2022-08-23T00:08:30.474Z,21.21
2022-08-23T00:09:05.696Z,21.14
2022-08-23T00:09:41.002Z,21.16
2022-08-23T00:10:16.119Z,21.08
2022-08-23T00:10:51.392Z,21.09
2022-08-23T00:11:26.919Z,21.05
2022-08-23T00:12:02.451Z,20.99
2022-08-23T00:12:37.533Z,21.04
2022-08-23T00:13:12.634Z,21.02
2022-08-23T00:13:48.502Z,20.95
2022-08-23T00:14:23.477Z,20.98
2022-08-23T00:14:58.599Z,20.86
2022-08-23T00:15:33.792Z,20.98
2022-08-23T00:16:09.132Z,20.89
2022-08-23T00:16:44.446Z,20.96
2022-08-23T00:17:30.945Z,20.86
2022-08-23T00:17:55.045Z,20.93
2022-08-23T00:18:30.482Z,20.96
2022-08-23T00:19:05.677Z,20.95
2022-08-23T00:19:40.592Z,20.98
2022-08-23T00:20:16.006Z,20.87
2022-08-23T00:20:51.127Z,20.96
2022-08-23T00:21:26.450Z,20.93
2022-08-23T00:22:01.581Z,20.96
2022-08-23T00:22:36.579Z,20.95
2022-08-23T00:23:11.797Z,20.90
2022-08-23T00:23:47.210Z,20.95
2022-08-23T00:24:22.578Z,20.90
2022-08-23T00:24:57.988Z,20.93
2022-08-23T00:25:33.374Z,20.90
2022-08-23T00:26:08.796Z,20.86
2022-08-23T00:26:44.056Z,20.96
2022-08-23T00:27:19.191Z,20.87
2022-08-23T00:27:54.362Z,20.93
2022-08-23T00:28:29.285Z,20.91
2022-08-23T00:29:04.893Z,20.93
2022-08-23T00:29:39.900Z,20.98
2022-08-23T00:30:15.353Z,20.95
2022-08-23T00:30:50.402Z,21.05
2022-08-23T00:31:25.605Z,20.96
2022-08-23T00:32:00.894Z,20.98
2022-08-23T00:32:36.046Z,20.96
2022-08-23T00:33:11.122Z,20.96
2022-08-23T00:33:46.120Z,20.91
2022-08-23T00:34:21.539Z,20.90
2022-08-23T00:34:57.015Z,20.90
2022-08-23T00:35:32.304Z,20.89
2022-08-23T00:36:07.390Z,20.95
2022-08-23T00:36:42.690Z,20.84
2022-08-23T00:37:17.996Z,20.87
2022-08-23T00:38:33.198Z,20.90
2022-08-23T00:38:33.873Z,20.89
2022-08-23T00:39:03.489Z,20.74
2022-08-23T00:39:38.746Z,20.89
2022-08-23T00:40:15.087Z,20.83
2022-08-23T00:40:50.222Z,20.84
2022-08-23T00:41:25.545Z,20.81
2022-08-23T00:42:00.862Z,20.79
2022-08-23T00:42:35.875Z,20.61
2022-08-23T00:43:11.453Z,20.71
2022-08-23T00:43:46.659Z,20.59
2022-08-23T00:44:22.068Z,20.54
2022-08-23T00:44:57.394Z,20.42
2022-08-23T00:45:32.691Z,20.39
2022-08-23T00:46:08.199Z,20.46
2022-08-23T00:46:43.636Z,20.39
2022-08-23T00:47:18.929Z,20.47
2022-08-23T00:47:54.337Z,20.42
2022-08-23T00:48:29.830Z,20.43
2022-08-23T00:49:05.048Z,20.33
2022-08-23T00:49:40.074Z,20.38
2022-08-23T00:50:19.253Z,20.39
2022-08-23T00:50:50.916Z,20.38
2022-08-23T00:51:26.004Z,20.27
2022-08-23T00:52:01.143Z,20.24
2022-08-23T00:52:36.371Z,20.33
2022-08-23T00:53:11.474Z,20.30
2022-08-23T00:53:46.690Z,20.27
2022-08-23T00:54:21.710Z,20.31
2022-08-23T00:54:56.914Z,20.31
2022-08-23T00:55:32.210Z,20.39
2022-08-23T00:56:07.836Z,20.33
2022-08-23T00:56:42.965Z,20.31
2022-08-23T00:57:18.253Z,20.33
2022-08-23T00:57:53.547Z,20.39
2022-08-23T00:58:28.843Z,20.21
2022-08-23T00:59:04.274Z,20.34
2022-08-23T00:59:39.711Z,20.28
2022-08-23T01:00:14.818Z,20.31
2022-08-23T01:00:49.937Z,20.27
2022-08-23T01:01:25.112Z,20.25
2022-08-23T01:02:00.741Z,20.27
2022-08-23T01:02:35.753Z,20.34
2022-08-23T01:03:11.328Z,20.27
2022-08-23T01:03:46.423Z,20.34
2022-08-23T01:04:21.831Z,20.24
2022-08-23T01:04:57.315Z,20.20
2022-08-23T01:05:32.518Z,20.21
2022-08-23T01:06:08.043Z,20.21
2022-08-23T01:06:43.633Z,20.21
2022-08-23T01:07:18.951Z,20.25
2022-08-23T01:07:54.517Z,20.18
2022-08-23T01:08:29.737Z,20.21
2022-08-23T01:09:04.975Z,20.15
2022-08-23T01:09:40.156Z,20.23
2022-08-23T01:10:21.131Z,20.24
2022-08-23T01:10:50.801Z,20.20
2022-08-23T01:11:26.606Z,20.21
2022-08-23T01:12:02.118Z,20.23
2022-08-23T01:12:37.312Z,20.25
2022-08-23T01:13:12.513Z,20.28
2022-08-23T01:13:47.644Z,20.23
2022-08-23T01:14:22.774Z,20.24
2022-08-23T01:14:57.886Z,20.21
2022-08-23T01:15:33.180Z,20.24
2022-08-23T01:16:08.693Z,20.24
2022-08-23T01:16:44.124Z,20.24
2022-08-23T01:17:19.338Z,20.21
2022-08-23T01:17:54.246Z,20.27
2022-08-23T01:18:29.226Z,20.21
2022-08-23T01:19:04.643Z,20.13
2022-08-23T01:19:40.155Z,20.15
2022-08-23T01:20:15.259Z,20.20
2022-08-23T01:20:50.343Z,20.23
2022-08-23T01:21:25.658Z,20.18
2022-08-23T01:22:01.063Z,20.03
2022-08-23T01:22:36.048Z,20.10
2022-08-23T01:23:11.468Z,20.06
2022-08-23T01:23:47.226Z,20.03
2022-08-23T01:24:41.132Z,20.00
2022-08-23T01:25:07.815Z,19.87
2022-08-23T01:25:32.799Z,19.86
2022-08-23T01:26:08.399Z,19.87
2022-08-23T01:26:44.046Z,19.91
2022-08-23T01:27:19.368Z,19.95
2022-08-23T01:27:54.952Z,19.93
2022-08-23T01:28:29.890Z,20.00
2022-08-23T01:29:05.100Z,19.98
2022-08-23T01:29:40.127Z,19.93
2022-08-23T01:30:15.621Z,19.87
2022-08-23T01:30:50.631Z,19.90
2022-08-23T01:31:25.610Z,19.84
2022-08-23T01:32:00.823Z,19.94
2022-08-23T01:32:36.026Z,19.90
2022-08-23T01:33:11.520Z,20.03
2022-08-23T01:33:46.828Z,19.97
2022-08-23T01:34:22.124Z,20.03
2022-08-23T01:34:57.691Z,19.95
2022-08-23T01:35:33.196Z,20.02
2022-08-23T01:36:09.833Z,19.98
2022-08-23T01:36:43.901Z,20.05
2022-08-23T01:37:19.204Z,20.10
2022-08-23T01:37:54.450Z,20.02
2022-08-23T01:38:30.314Z,20.06
2022-08-23T01:39:04.809Z,20.10
2022-08-23T01:39:40.152Z,20.06
2022-08-23T01:40:15.500Z,20.09
2022-08-23T01:40:50.945Z,20.08
2022-08-23T01:41:25.871Z,19.95
2022-08-23T01:42:00.923Z,20.06
2022-08-23T01:42:36.456Z,20.00
2022-08-23T01:43:11.546Z,20.15
2022-08-23T01:43:47.075Z,20.03
2022-08-23T01:44:22.383Z,20.02
2022-08-23T01:44:57.679Z,20.09
2022-08-23T01:45:33.521Z,20.06
2022-08-23T01:46:08.754Z,20.06
2022-08-23T01:46:44.167Z,20.10
2022-08-23T01:47:19.172Z,20.03
2022-08-23T01:47:54.161Z,20.08
2022-08-23T01:48:29.382Z,20.08
2022-08-23T01:49:08.032Z,20.08
2022-08-23T01:49:40.093Z,20.10
2022-08-23T01:50:15.482Z,20.06
2022-08-23T01:50:50.826Z,20.06
2022-08-23T01:51:25.753Z,20.10
2022-08-23T01:52:00.980Z,20.12
2022-08-23T01:52:36.478Z,20.12
2022-08-23T01:53:11.637Z,20.13
2022-08-23T01:53:47.028Z,20.16
2022-08-23T01:54:22.556Z,20.09
2022-08-23T01:54:57.666Z,20.09
2022-08-23T01:55:32.872Z,20.12
2022-08-23T01:56:08.196Z,20.05
2022-08-23T01:56:43.384Z,20.13
2022-08-23T01:57:18.818Z,20.10
2022-08-23T01:57:54.042Z,20.18
2022-08-23T01:58:29.341Z,19.98
2022-08-23T01:59:04.445Z,20.06
2022-08-23T01:59:39.923Z,20.00
2022-08-23T02:00:15.310Z,19.94
2022-08-23T02:00:50.719Z,19.97
2022-08-23T02:01:26.213Z,19.94
2022-08-23T02:02:01.204Z,19.87
2022-08-23T02:02:36.466Z,19.97
2022-08-23T02:03:11.466Z,19.87
2022-08-23T02:03:47.004Z,19.88
2022-08-23T02:04:22.152Z,19.86
2022-08-23T02:04:57.442Z,19.91
2022-08-23T02:05:32.652Z,19.88
2022-08-23T02:06:07.673Z,19.91
2022-08-23T02:06:42.900Z,19.72
2022-08-23T02:07:18.428Z,19.75
2022-08-23T02:07:53.338Z,19.86
2022-08-23T02:08:28.862Z,19.83
2022-08-23T02:09:04.089Z,19.73
2022-08-23T02:09:39.189Z,19.90
2022-08-23T02:10:14.388Z,19.90
2022-08-23T02:10:49.902Z,19.76
2022-08-23T02:11:25.209Z,19.95
2022-08-23T02:12:00.602Z,19.91
2022-08-23T02:12:35.832Z,19.84
2022-08-23T02:13:11.069Z,19.86
2022-08-23T02:13:46.482Z,19.75
2022-08-23T02:14:21.680Z,19.90
2022-08-23T02:14:56.986Z,19.83
2022-08-23T02:15:32.004Z,19.86
2022-08-23T02:16:07.525Z,19.90
2022-08-23T02:16:42.572Z,19.87
2022-08-23T02:17:17.805Z,19.72
2022-08-23T02:17:52.809Z,19.88
2022-08-23T02:18:27.711Z,19.84
2022-08-23T02:19:03.244Z,19.78
2022-08-23T02:19:38.260Z,19.72
2022-08-23T02:20:13.457Z,19.80
2022-08-23T02:20:48.576Z,19.78
2022-08-23T02:21:23.484Z,19.79
2022-08-23T02:21:58.707Z,19.80
2022-08-23T02:22:33.807Z,19.78
2022-08-23T02:23:09.406Z,19.75
2022-08-23T02:23:44.652Z,19.73
2022-08-23T02:24:19.915Z,19.70
2022-08-23T02:24:55.078Z,19.75
2022-08-23T02:25:30.453Z,19.75
2022-08-23T02:26:05.658Z,19.63
2022-08-23T02:26:41.053Z,19.70
2022-08-23T02:27:16.098Z,19.70
2022-08-23T02:27:51.127Z,19.60
2022-08-23T02:28:26.365Z,19.58
2022-08-23T02:29:02.018Z,19.61
2022-08-23T02:29:39.272Z,19.69
2022-08-23T02:30:12.585Z,19.69
2022-08-23T02:30:47.709Z,19.57
2022-08-23T02:31:22.805Z,19.60
2022-08-23T02:31:57.925Z,19.58
2022-08-23T02:32:33.031Z,19.60
2022-08-23T02:33:08.306Z,19.70
2022-08-23T02:33:43.820Z,19.53
2022-08-23T02:34:18.823Z,19.58
2022-08-23T02:35:04.493Z,19.51
2022-08-23T02:35:29.347Z,19.47
2022-08-23T02:36:04.363Z,19.50
2022-08-23T02:36:39.585Z,19.57
2022-08-23T02:37:14.786Z,19.51
2022-08-23T02:37:50.089Z,19.47
2022-08-23T02:38:25.323Z,19.58
2022-08-23T02:39:00.831Z,19.54
2022-08-23T02:39:36.232Z,19.57
2022-08-23T02:40:11.547Z,19.55
2022-08-23T02:40:46.431Z,19.60
2022-08-23T02:41:21.919Z,19.61
2022-08-23T02:41:57.228Z,19.63
2022-08-23T02:42:32.571Z,19.66
2022-08-23T02:43:07.980Z,19.55
2022-08-23T02:43:43.361Z,19.48
2022-08-23T02:44:18.667Z,19.51
2022-08-23T02:44:53.686Z,19.48
2022-08-23T02:45:28.908Z,19.46
2022-08-23T02:46:04.308Z,19.38
2022-08-23T02:46:39.671Z,19.46
2022-08-23T02:47:14.755Z,19.38
2022-08-23T02:47:50.460Z,19.31
2022-08-23T02:48:26.081Z,19.42
2022-08-23T02:49:01.295Z,19.32
2022-08-23T02:49:36.437Z,19.18
2022-08-23T02:50:11.529Z,19.35
2022-08-23T02:50:46.785Z,19.21
2022-08-23T02:51:21.967Z,19.28
2022-08-23T02:51:57.568Z,19.24
2022-08-23T02:52:32.876Z,19.25
2022-08-23T02:53:08.066Z,19.24
2022-08-23T02:53:43.428Z,19.23
2022-08-23T02:54:18.646Z,19.29
2022-08-23T02:54:53.786Z,19.20
2022-08-23T02:55:29.114Z,19.23
2022-08-23T02:56:04.109Z,19.23
2022-08-23T02:56:39.315Z,19.24
2022-08-23T02:57:14.428Z,19.33
2022-08-23T02:57:49.644Z,19.28
2022-08-23T02:58:24.874Z,19.21
2022-08-23T02:59:00.202Z,19.25
2022-08-23T02:59:35.586Z,19.33
2022-08-23T03:00:11.089Z,19.18
2022-08-23T03:00:46.310Z,19.32
2022-08-23T03:01:21.628Z,19.21
2022-08-23T03:01:56.971Z,19.28
2022-08-23T03:02:32.363Z,19.25
2022-08-23T03:03:07.414Z,19.23
2022-08-23T03:03:42.846Z,19.23
2022-08-23T03:04:18.351Z,19.24
2022-08-23T03:04:53.775Z,19.24
2022-08-23T03:05:28.959Z,19.38
2022-08-23T03:06:25.250Z,19.33
2022-08-23T03:06:39.465Z,19.33
2022-08-23T03:07:15.100Z,19.36
2022-08-23T03:07:50.602Z,19.33
2022-08-23T03:08:26.182Z,19.38
2022-08-23T03:09:01.379Z,19.36
2022-08-23T03:09:36.510Z,19.40
2022-08-23T03:10:11.543Z,19.46
2022-08-23T03:10:46.878Z,19.40
2022-08-23T03:11:22.192Z,19.47
2022-08-23T03:11:57.399Z,19.36
2022-08-23T03:12:32.635Z,19.40
2022-08-23T03:13:07.755Z,19.40
2022-08-23T03:13:42.959Z,19.40
2022-08-23T03:14:18.307Z,19.38
2022-08-23T03:14:53.339Z,19.43
2022-08-23T03:15:28.769Z,19.42
2022-08-23T03:16:04.306Z,19.47
2022-08-23T03:16:39.723Z,19.47
2022-08-23T03:17:15.030Z,19.42
2022-08-23T03:17:50.241Z,19.46
2022-08-23T03:18:25.763Z,19.42
2022-08-23T03:19:00.866Z,19.46
2022-08-23T03:19:36.007Z,19.40
2022-08-23T03:20:11.359Z,19.38
2022-08-23T03:20:46.296Z,19.40
2022-08-23T03:21:21.612Z,19.47
2022-08-23T03:21:56.971Z,19.40
2022-08-23T03:22:32.138Z,19.46
2022-08-23T03:23:07.236Z,19.47
2022-08-23T03:23:42.455Z,19.42
2022-08-23T03:24:17.760Z,19.42
2022-08-23T03:24:53.156Z,19.36
2022-08-23T03:25:28.150Z,19.38
2022-08-23T03:26:03.470Z,19.39
2022-08-23T03:26:38.696Z,19.33
2022-08-23T03:27:13.950Z,19.21
2022-08-23T03:27:49.165Z,19.18
2022-08-23T03:28:24.567Z,19.21
2022-08-23T03:28:59.971Z,19.28
2022-08-23T03:29:35.466Z,19.21
2022-08-23T03:30:17.708Z,19.18
2022-08-23T03:30:46.135Z,19.25
2022-08-23T03:31:21.252Z,19.31
2022-08-23T03:31:56.163Z,19.25
2022-08-23T03:32:31.375Z,19.23
2022-08-23T03:33:06.742Z,19.28
2022-08-23T03:33:42.046Z,19.25
2022-08-23T03:34:17.288Z,19.21
2022-08-23T03:34:52.083Z,19.21
2022-08-23T03:35:27.305Z,19.28
2022-08-23T03:36:02.459Z,19.33
2022-08-23T03:36:37.976Z,19.25
2022-08-23T03:37:13.189Z,19.31
2022-08-23T03:37:49.726Z,19.23
2022-08-23T03:38:23.944Z,19.21
2022-08-23T03:38:59.191Z,19.24
2022-08-23T03:39:34.619Z,19.35
2022-08-23T03:40:09.590Z,19.31
2022-08-23T03:40:44.527Z,19.29
2022-08-23T03:41:19.869Z,19.24
2022-08-23T03:41:55.128Z,19.21
2022-08-23T03:42:30.935Z,19.15
2022-08-23T03:43:05.897Z,19.18
2022-08-23T03:43:41.301Z,19.20
2022-08-23T03:44:16.549Z,19.15
2022-08-23T03:44:51.436Z,19.13
2022-08-23T03:45:26.536Z,19.08
2022-08-23T03:46:01.870Z,19.17
2022-08-23T03:46:36.888Z,19.06
2022-08-23T03:47:12.200Z,19.20
2022-08-23T03:47:47.706Z,19.11
2022-08-23T03:48:23.044Z,19.11
2022-08-23T03:48:58.139Z,19.10
2022-08-23T03:49:33.636Z,19.13
2022-08-23T03:50:08.842Z,19.17
2022-08-23T03:50:44.168Z,19.08
2022-08-23T03:51:19.452Z,19.18
2022-08-23T03:51:54.471Z,19.13
2022-08-23T03:52:29.800Z,19.06
2022-08-23T03:53:04.802Z,19.10
2022-08-23T03:53:40.396Z,19.08
2022-08-23T03:54:15.601Z,19.13
2022-08-23T03:54:50.939Z,19.06
2022-08-23T03:55:26.368Z,19.11
2022-08-23T03:56:01.573Z,19.08
2022-08-23T03:56:36.773Z,19.13
2022-08-23T03:57:11.874Z,19.02
2022-08-23T03:57:47.431Z,19.13
2022-08-23T03:58:22.658Z,19.10
2022-08-23T03:58:58.066Z,18.99
2022-08-23T03:59:33.396Z,18.94
2022-08-23T04:00:08.856Z,19.02
2022-08-23T04:00:44.301Z,18.98
2022-08-23T04:01:19.547Z,18.92
2022-08-23T04:01:54.711Z,18.91
2022-08-23T04:02:29.785Z,18.97
2022-08-23T04:03:05.020Z,18.95
2022-08-23T04:03:40.143Z,18.97
2022-08-23T04:04:15.465Z,18.95
2022-08-23T04:04:50.801Z,18.91
2022-08-23T04:05:26.218Z,18.84
2022-08-23T04:06:01.399Z,18.91
2022-08-23T04:06:36.721Z,18.92
2022-08-23T04:07:11.910Z,18.94
2022-08-23T04:07:47.055Z,18.92
2022-08-23T04:08:29.720Z,18.99
2022-08-23T04:08:57.519Z,19.02
2022-08-23T04:09:32.840Z,18.95
2022-08-23T04:10:08.034Z,18.97
2022-08-23T04:10:43.161Z,18.91
2022-08-23T04:11:18.384Z,18.87
2022-08-23T04:11:53.728Z,18.87
2022-08-23T04:12:29.070Z,18.91
2022-08-23T04:13:04.093Z,18.94
2022-08-23T04:13:39.520Z,18.95
2022-08-23T04:14:15.140Z,18.95
2022-08-23T04:14:50.868Z,18.94
2022-08-23T04:15:26.019Z,18.97
2022-08-23T04:16:01.384Z,18.94
2022-08-23T04:16:36.520Z,18.92
2022-08-23T04:17:11.627Z,18.94
2022-08-23T04:17:47.146Z,18.94
2022-08-23T04:18:22.154Z,18.98
2022-08-23T04:18:57.298Z,18.98
2022-08-23T04:19:32.899Z,18.90
2022-08-23T04:20:08.241Z,18.97
2022-08-23T04:20:50.494Z,18.94
2022-08-23T04:21:25.656Z,18.90
2022-08-23T04:22:00.896Z,18.99
2022-08-23T04:22:36.314Z,19.08
2022-08-23T04:23:11.603Z,18.95
2022-08-23T04:23:46.951Z,19.01
2022-08-23T04:24:22.272Z,19.01
2022-08-23T04:24:57.880Z,18.98
2022-08-23T04:25:35.481Z,19.05
2022-08-23T04:26:09.821Z,19.01
2022-08-23T04:26:43.717Z,19.02
2022-08-23T04:27:18.823Z,19.01
2022-08-23T04:27:54.027Z,18.95
2022-08-23T04:28:29.144Z,18.99
2022-08-23T04:29:04.442Z,18.97
2022-08-23T04:29:39.887Z,19.06
2022-08-23T04:30:15.094Z,18.99
2022-08-23T04:30:50.556Z,19.06
2022-08-23T04:31:25.947Z,18.97
2022-08-23T04:32:01.557Z,19.02
2022-08-23T04:32:36.990Z,19.06
2022-08-23T04:33:16.199Z,18.95
2022-08-23T04:33:52.265Z,18.98
2022-08-23T04:34:22.803Z,18.92
2022-08-23T04:34:57.944Z,19.02
2022-08-23T04:35:33.261Z,18.95
2022-08-23T04:36:08.467Z,18.98
2022-08-23T04:36:44.791Z,18.97
2022-08-23T04:37:18.731Z,18.99
2022-08-23T04:37:54.074Z,18.98
2022-08-23T04:38:29.195Z,18.87
2022-08-23T04:39:04.479Z,18.87
2022-08-23T04:39:39.637Z,18.84
2022-08-23T04:40:14.793Z,18.87
2022-08-23T04:40:50.182Z,18.95
2022-08-23T04:41:25.288Z,18.95
2022-08-23T04:42:00.578Z,18.90
2022-08-23T04:42:35.602Z,18.87
2022-08-23T04:43:10.626Z,18.91
2022-08-23T04:43:46.059Z,18.94
2022-08-23T04:44:21.179Z,18.97
2022-08-23T04:44:56.776Z,18.94
2022-08-23T04:45:32.051Z,18.92
2022-08-23T04:46:07.343Z,18.97
2022-08-23T04:46:42.465Z,18.91
2022-08-23T04:47:17.655Z,18.90
2022-08-23T04:47:52.863Z,18.86
2022-08-23T04:48:28.267Z,18.92
2022-08-23T04:49:03.686Z,18.97
2022-08-23T04:49:38.812Z,18.95
2022-08-23T04:50:14.028Z,18.99
2022-08-23T04:50:49.058Z,19.02
2022-08-23T04:51:24.385Z,18.98
2022-08-23T04:51:59.699Z,19.06
2022-08-23T04:52:34.833Z,18.99
2022-08-23T04:53:10.118Z,19.02
2022-08-23T04:53:45.459Z,18.99
2022-08-23T04:54:21.966Z,18.97
2022-08-23T04:54:56.169Z,19.06
2022-08-23T04:55:31.303Z,18.97
2022-08-23T04:56:06.581Z,19.01
2022-08-23T04:56:42.220Z,19.02
2022-08-23T04:57:17.641Z,18.97
2022-08-23T04:57:52.852Z,18.94
2022-08-23T04:58:28.164Z,18.94
2022-08-23T04:59:03.226Z,18.97
2022-08-23T04:59:38.661Z,18.94
2022-08-23T05:00:13.995Z,18.98
2022-08-23T05:00:51.447Z,18.95
2022-08-23T05:01:24.893Z,18.92
2022-08-23T05:02:00.193Z,18.87
2022-08-23T05:02:35.321Z,18.90
2022-08-23T05:03:10.656Z,18.87
2022-08-23T05:03:45.876Z,18.95
2022-08-23T05:04:21.511Z,19.01
2022-08-23T05:04:56.766Z,18.97
2022-08-23T05:05:32.102Z,18.95
2022-08-23T05:06:07.245Z,18.94
2022-08-23T05:06:42.861Z,18.97
2022-08-23T05:07:18.272Z,18.95
2022-08-23T05:07:53.162Z,18.91
2022-08-23T05:08:28.486Z,19.01
2022-08-23T05:09:03.891Z,18.99
2022-08-23T05:09:39.139Z,18.97
2022-08-23T05:10:14.673Z,18.95
2022-08-23T05:10:49.812Z,19.01
2022-08-23T05:11:25.041Z,18.92
2022-08-23T05:12:00.281Z,19.02
2022-08-23T05:12:35.585Z,18.95
2022-08-23T05:13:10.910Z,19.05
2022-08-23T05:13:46.114Z,18.98
2022-08-23T05:14:21.647Z,18.95
2022-08-23T05:14:56.665Z,18.98
2022-08-23T05:15:31.764Z,19.02
2022-08-23T05:16:07.524Z,19.10
2022-08-23T05:16:42.834Z,18.95
2022-08-23T05:17:18.343Z,18.95
2022-08-23T05:17:53.457Z,19.01
2022-08-23T05:18:28.585Z,18.95
2022-08-23T05:19:03.806Z,18.97
2022-08-23T05:19:39.437Z,19.05
2022-08-23T05:20:14.207Z,18.92
2022-08-23T05:20:49.276Z,19.05
2022-08-23T05:21:24.692Z,18.99
2022-08-23T05:22:00.026Z,19.01
2022-08-23T05:22:35.337Z,19.01
2022-08-23T05:23:10.567Z,18.99
2022-08-23T05:23:50.853Z,18.97
2022-08-23T05:24:20.893Z,19.01
2022-08-23T05:24:56.395Z,18.99
2022-08-23T05:25:31.726Z,18.99
2022-08-23T05:26:07.185Z,19.01
2022-08-23T05:26:42.405Z,18.98
2022-08-23T05:27:17.606Z,19.11
2022-08-23T05:27:52.735Z,19.05
2022-08-23T05:28:28.028Z,19.10
2022-08-23T05:29:03.832Z,19.06
2022-08-23T05:29:39.052Z,19.08
2022-08-23T05:30:15.448Z,19.14
2022-08-23T05:30:56.554Z,19.14
2022-08-23T05:31:24.458Z,19.05
2022-08-23T05:31:59.666Z,19.11
2022-08-23T05:32:34.882Z,19.14
2022-08-23T05:33:10.168Z,19.05
2022-08-23T05:33:45.360Z,19.13
2022-08-23T05:34:22.667Z,19.15
2022-08-23T05:34:56.125Z,19.15
2022-08-23T05:35:31.657Z,19.21
2022-08-23T05:36:06.834Z,19.15
2022-08-23T05:36:53.379Z,19.14
2022-08-23T05:37:17.555Z,19.18
2022-08-23T05:37:52.686Z,19.15
2022-08-23T05:38:27.995Z,19.25
2022-08-23T05:39:03.065Z,19.18
2022-08-23T05:39:38.211Z,19.23
2022-08-23T05:40:13.547Z,19.17
2022-08-23T05:40:49.063Z,19.24
2022-08-23T05:41:25.928Z,19.25
2022-08-23T05:41:59.403Z,19.20
2022-08-23T05:42:34.818Z,19.21
2022-08-23T05:43:10.438Z,19.25
2022-08-23T05:43:45.428Z,19.31
2022-08-23T05:44:21.462Z,19.32
2022-08-23T05:44:55.877Z,19.43
2022-08-23T05:45:30.997Z,19.33
2022-08-23T05:46:06.316Z,19.48
2022-08-23T05:46:41.749Z,19.46
2022-08-23T05:47:16.845Z,19.43
2022-08-23T05:47:51.860Z,19.53
2022-08-23T05:48:27.174Z,19.50
2022-08-23T05:49:02.676Z,19.63
2022-08-23T05:49:37.896Z,19.55
2022-08-23T05:50:12.818Z,19.60
2022-08-23T05:50:48.043Z,19.70
2022-08-23T05:51:23.778Z,19.65
2022-08-23T05:51:58.900Z,19.72
2022-08-23T05:52:34.326Z,19.79
2022-08-23T05:53:09.420Z,19.78
2022-08-23T05:53:44.633Z,19.79
2022-08-23T05:54:19.940Z,19.80
2022-08-23T05:54:55.278Z,19.78
2022-08-23T05:55:35.094Z,19.86
2022-08-23T05:56:05.589Z,19.86
2022-08-23T05:56:40.691Z,19.90
2022-08-23T05:57:15.981Z,19.86
2022-08-23T05:57:51.199Z,19.91
2022-08-23T05:58:26.418Z,20.00
2022-08-23T05:59:01.621Z,20.03
2022-08-23T05:59:36.638Z,20.08
2022-08-23T06:00:11.859Z,20.10
2022-08-23T06:00:47.022Z,20.08
2022-08-23T06:01:22.117Z,20.10
2022-08-23T06:01:57.291Z,20.08
2022-08-23T06:02:32.488Z,20.24
2022-08-23T06:03:07.791Z,20.21
2022-08-23T06:03:43.098Z,20.12
2022-08-23T06:04:18.307Z,20.20
2022-08-23T06:04:57.169Z,20.27
2022-08-23T06:05:28.723Z,20.30
2022-08-23T06:06:03.735Z,20.33
2022-08-23T06:06:39.040Z,20.35
2022-08-23T06:07:14.242Z,20.50
2022-08-23T06:07:49.475Z,20.41
2022-08-23T06:08:24.669Z,20.42
2022-08-23T06:09:00.311Z,20.43
2022-08-23T06:09:35.849Z,20.46
2022-08-23T06:10:15.882Z,20.51
2022-08-23T06:10:46.484Z,20.46
2022-08-23T06:11:21.786Z,20.53
2022-08-23T06:11:57.083Z,20.49
2022-08-23T06:12:32.231Z,20.61
2022-08-23T06:13:07.625Z,20.51
2022-08-23T06:13:42.940Z,20.62
2022-08-23T06:14:17.958Z,20.62
2022-08-23T06:14:53.201Z,20.62
2022-08-23T06:15:28.375Z,20.59
2022-08-23T06:16:14.680Z,20.76
2022-08-23T06:16:39.124Z,20.74
2022-08-23T06:17:14.316Z,20.81
2022-08-23T06:17:49.554Z,20.89
2022-08-23T06:18:24.860Z,20.84
2022-08-23T06:19:00.398Z,20.91
2022-08-23T06:19:35.763Z,20.99
2022-08-23T06:20:11.186Z,20.99
2022-08-23T06:20:46.753Z,20.98
2022-08-23T06:21:21.791Z,21.09
2022-08-23T06:21:57.110Z,21.16
2022-08-23T06:22:32.404Z,21.17
2022-08-23T06:23:07.625Z,21.21
2022-08-23T06:23:42.755Z,21.26
2022-08-23T06:24:18.172Z,21.29
2022-08-23T06:24:53.497Z,21.32
2022-08-23T06:25:28.594Z,21.34
2022-08-23T06:26:03.742Z,21.44
2022-08-23T06:26:39.270Z,21.46
2022-08-23T06:27:14.880Z,21.53
2022-08-23T06:27:49.885Z,21.56
2022-08-23T06:28:25.610Z,21.48
2022-08-23T06:29:00.600Z,21.60
2022-08-23T06:29:36.006Z,21.56
2022-08-23T06:30:12.494Z,21.63
2022-08-23T06:30:46.695Z,21.56
2022-08-23T06:31:21.887Z,21.71
2022-08-23T06:31:56.879Z,21.63
2022-08-23T06:32:31.855Z,21.67
2022-08-23T06:33:07.342Z,21.72
2022-08-23T06:33:42.573Z,21.72
2022-08-23T06:34:17.648Z,21.81
2022-08-23T06:35:24.372Z,21.81
2022-08-23T06:35:38.765Z,21.90
2022-08-23T06:36:04.009Z,21.94
2022-08-23T06:36:38.828Z,21.90
2022-08-23T06:37:14.316Z,21.92
2022-08-23T06:37:49.751Z,21.92
2022-08-23T06:38:24.957Z,22.01
2022-08-23T06:39:00.063Z,22.06
2022-08-23T06:39:37.555Z,22.06
2022-08-23T06:40:10.532Z,22.25
2022-08-23T06:40:45.725Z,22.12
2022-08-23T06:41:21.151Z,22.19
2022-08-23T06:41:56.557Z,22.31
2022-08-23T06:42:39.057Z,22.31
2022-08-23T06:43:06.706Z,22.39
2022-08-23T06:43:42.110Z,22.43
2022-08-23T06:44:17.711Z,22.43
2022-08-23T06:44:53.128Z,22.44
2022-08-23T06:45:35.300Z,22.49
2022-08-23T06:46:03.764Z,22.53
2022-08-23T06:46:39.160Z,22.60
2022-08-23T06:47:14.600Z,22.64
2022-08-23T06:47:50.010Z,22.74
2022-08-23T06:48:25.440Z,22.80
2022-08-23T06:49:00.634Z,22.89
2022-08-23T06:49:36.252Z,22.94
2022-08-23T06:50:11.353Z,23.01
2022-08-23T06:50:47.806Z,23.07
2022-08-23T06:51:21.784Z,23.08
2022-08-23T06:51:57.009Z,23.12
2022-08-23T06:52:32.117Z,23.07
2022-08-23T06:53:09.961Z,23.15
2022-08-23T06:53:42.547Z,23.34
2022-08-23T06:54:17.986Z,23.34
2022-08-23T06:54:53.286Z,23.43
2022-08-23T06:55:28.226Z,23.43
2022-08-23T06:56:03.432Z,23.50
2022-08-23T06:56:38.853Z,23.50
2022-08-23T06:57:14.483Z,23.55
2022-08-23T06:57:49.798Z,23.60
2022-08-23T06:58:25.405Z,23.71
2022-08-23T06:59:00.719Z,23.75
2022-08-23T06:59:35.926Z,23.82
2022-08-23T07:00:11.018Z,23.72
2022-08-23T07:00:46.268Z,23.79
2022-08-23T07:01:44.090Z,23.83
2022-08-23T07:01:56.764Z,23.97
2022-08-23T07:02:32.458Z,24.08
2022-08-23T07:03:07.669Z,24.13
2022-08-23T07:03:42.756Z,24.23
2022-08-23T07:04:17.975Z,24.13
2022-08-23T07:04:53.176Z,24.31
2022-08-23T07:05:28.288Z,24.26
2022-08-23T07:06:03.603Z,24.26
2022-08-23T07:06:38.651Z,24.27
2022-08-23T07:07:13.969Z,24.41
2022-08-23T07:07:49.092Z,24.45
2022-08-23T07:08:24.405Z,24.42
2022-08-23T07:08:59.544Z,24.54
2022-08-23T07:09:34.879Z,24.56
2022-08-23T07:10:10.083Z,24.61
2022-08-23T07:10:45.398Z,24.71
2022-08-23T07:11:20.725Z,24.76
2022-08-23T07:11:56.105Z,24.73
2022-08-23T07:12:31.609Z,24.71
2022-08-23T07:13:06.768Z,24.77
2022-08-23T07:13:41.907Z,24.73
2022-08-23T07:14:17.206Z,24.85
2022-08-23T07:14:52.633Z,24.87
2022-08-23T07:15:28.136Z,24.87
2022-08-23T07:16:03.651Z,24.94
2022-08-23T07:16:38.881Z,24.97
2022-08-23T07:17:14.086Z,24.95
2022-08-23T07:17:49.457Z,25.02
2022-08-23T07:18:24.809Z,25.10
2022-08-23T07:19:00.471Z,25.16
2022-08-23T07:19:35.714Z,25.16
2022-08-23T07:20:10.826Z,25.25
2022-08-23T07:20:46.140Z,25.30
2022-08-23T07:21:21.357Z,25.35
2022-08-23T07:21:56.494Z,25.39
2022-08-23T07:22:31.911Z,25.52
2022-08-23T07:23:07.457Z,25.53
2022-08-23T07:23:46.356Z,25.61
2022-08-23T07:24:17.964Z,25.62
2022-08-23T07:24:53.111Z,25.79
2022-08-23T07:25:28.321Z,25.83
2022-08-23T07:26:03.748Z,25.97
2022-08-23T07:26:38.967Z,26.02
2022-08-23T07:27:14.176Z,26.05
2022-08-23T07:27:49.312Z,26.15
2022-08-23T07:28:24.531Z,26.22
2022-08-23T07:28:59.982Z,26.18
2022-08-23T07:29:35.397Z,26.24
2022-08-23T07:30:10.619Z,26.24
2022-08-23T07:30:45.817Z,26.28
2022-08-23T07:31:21.126Z,26.31
2022-08-23T07:31:56.534Z,26.28
2022-08-23T07:32:31.679Z,26.39
2022-08-23T07:33:07.304Z,26.32
2022-08-23T07:33:44.501Z,26.46
2022-08-23T07:34:17.507Z,26.49